sensor_id;sensor_type;location;lat;lon;timestamp;pressure;altitude;pressure_sealevel;temperature;humidity
25130;BME280;13308;50.860;13.664;2022-08-14T04:45:12;96620.66;;;15.48;100.00
25130;BME280;13308;50.860;13.664;2022-08-14T04:47:39;96617.16;;;15.57;100.00
25130;BME280;13308;50.860;13.664;2022-08-14T04:50:23;96617.00;;;15.60;100.00
25130;BME280;13308;50.860;13.664;2022-08-14T04:52:48;96614.44;;;15.75;100.00
25130;BME280;13308;50.860;13.664;2022-08-14T04:55:13;96609.34;;;15.73;100.00
25130;BME280;13308;50.860;13.664;2022-08-14T04:57:39;96621.91;;;15.87;100.00
25130;BME280;13308;50.860;13.664;2022-08-14T05:00:04;96624.22;;;15.88;100.00
25130;BME280;13308;50.860;13.664;2022-08-14T05:02:31;96624.56;;;15.90;100.00
25130;BME280;13308;50.860;13.664;2022-08-14T05:04:58;96632.41;;;15.92;100.00
25130;BME280;13308;50.860;13.664;2022-08-14T05:07:24;96623.78;;;15.90;100.00
25130;BME280;13308;50.860;13.664;2022-08-14T05:09:49;96622.72;;;15.96;100.00
25130;BME280;13308;50.860;13.664;2022-08-14T05:12:15;96621.66;;;16.03;100.00
25130;BME280;13308;50.860;13.664;2022-08-14T05:14:40;96613.78;;;16.10;100.00
25130;BME280;13308;50.860;13.664;2022-08-14T05:17:06;96612.44;;;16.24;100.00
25130;BME280;13308;50.860;13.664;2022-08-14T05:19:31;96611.28;;;16.43;100.00
25130;BME280;13308;50.860;13.664;2022-08-14T05:21:56;96615.09;;;16.36;100.00
25130;BME280;13308;50.860;13.664;2022-08-14T05:24:22;96608.03;;;16.44;100.00
25130;BME280;13308;50.860;13.664;2022-08-14T05:26:48;96608.66;;;16.57;100.00
25130;BME280;13308;50.860;13.664;2022-08-14T05:29:13;96608.03;;;16.53;100.00
25130;BME280;13308;50.860;13.664;2022-08-14T05:31:38;96602.16;;;16.60;100.00
25130;BME280;13308;50.860;13.664;2022-08-14T05:34:05;96607.72;;;16.60;100.00
25130;BME280;13308;50.860;13.664;2022-08-14T05:36:32;96608.06;;;16.62;100.00
25130;BME280;13308;50.860;13.664;2022-08-14T05:38:59;96601.56;;;16.74;100.00
25130;BME280;13308;50.860;13.664;2022-08-14T05:41:24;96611.63;;;16.72;100.00
25130;BME280;13308;50.860;13.664;2022-08-14T05:43:50;96591.06;;;16.78;100.00
25130;BME280;13308;50.860;13.664;2022-08-14T05:46:17;96597.06;;;16.86;100.00
25130;BME280;13308;50.860;13.664;2022-08-14T05:48:46;96603.41;;;16.95;100.00
25130;BME280;13308;50.860;13.664;2022-08-14T05:51:12;96600.03;;;16.91;100.00
25130;BME280;13308;50.860;13.664;2022-08-14T05:53:38;96602.50;;;16.98;100.00
25130;BME280;13308;50.860;13.664;2022-08-14T05:56:03;96599.22;;;17.09;100.00
25130;BME280;13308;50.860;13.664;2022-08-14T05:58:29;96597.81;;;17.22;100.00
25130;BME280;13308;50.860;13.664;2022-08-14T06:00:54;96597.84;;;17.04;100.00
25130;BME280;13308;50.860;13.664;2022-08-14T06:03:21;96589.78;;;17.15;100.00
25130;BME280;13308;50.860;13.664;2022-08-14T06:05:50;96592.25;;;17.22;100.00
25130;BME280;13308;50.860;13.664;2022-08-14T06:10:43;96589.84;;;17.57;100.00
25130;BME280;13308;50.860;13.664;2022-08-14T06:13:09;96585.44;;;17.83;100.00
25130;BME280;13308;50.860;13.664;2022-08-14T06:15:34;96587.72;;;18.17;100.00
25130;BME280;13308;50.860;13.664;2022-08-14T06:18:00;96589.38;;;18.32;100.00
25130;BME280;13308;50.860;13.664;2022-08-14T06:20:26;96587.16;;;18.45;100.00
25130;BME280;13308;50.860;13.664;2022-08-14T06:22:52;96587.59;;;18.67;100.00
25130;BME280;13308;50.860;13.664;2022-08-14T06:25:17;96573.97;;;18.98;100.00
25130;BME280;13308;50.860;13.664;2022-08-14T06:27:45;96580.38;;;19.13;100.00
25130;BME280;13308;50.860;13.664;2022-08-14T06:30:23;96579.66;;;19.56;100.00
25130;BME280;13308;50.860;13.664;2022-08-14T06:32:49;96580.03;;;19.78;100.00
25130;BME280;13308;50.860;13.664;2022-08-14T06:35:15;96580.75;;;20.07;100.00
25130;BME280;13308;50.860;13.664;2022-08-14T06:37:57;96584.38;;;20.28;100.00
25130;BME280;13308;50.860;13.664;2022-08-14T06:40:25;96581.63;;;20.48;100.00
25130;BME280;13308;50.860;13.664;2022-08-14T06:42:51;96587.94;;;20.83;100.00
25130;BME280;13308;50.860;13.664;2022-08-14T06:45:16;96574.75;;;21.09;100.00
25130;BME280;13308;50.860;13.664;2022-08-14T06:47:43;96572.03;;;21.71;100.00
25130;BME280;13308;50.860;13.664;2022-08-14T06:50:15;96568.25;;;21.74;99.17
25130;BME280;13308;50.860;13.664;2022-08-14T06:52:41;96571.13;;;22.16;100.00
25130;BME280;13308;50.860;13.664;2022-08-14T06:55:09;96576.34;;;22.70;99.42
25130;BME280;13308;50.860;13.664;2022-08-14T06:57:37;96565.09;;;23.51;95.62
25130;BME280;13308;50.860;13.664;2022-08-14T07:00:09;96580.72;;;24.45;93.98
25130;BME280;13308;50.860;13.664;2022-08-14T07:02:35;96581.34;;;25.01;85.96
25130;BME280;13308;50.860;13.664;2022-08-14T07:05:19;96586.03;;;26.14;83.94
25130;BME280;13308;50.860;13.664;2022-08-14T07:08:03;96573.19;;;26.43;78.78
25130;BME280;13308;50.860;13.664;2022-08-14T07:10:29;96576.13;;;27.22;76.68
25130;BME280;13308;50.860;13.664;2022-08-14T07:12:55;96573.84;;;27.58;74.47
25130;BME280;13308;50.860;13.664;2022-08-14T07:15:20;96582.72;;;28.17;72.77
25130;BME280;13308;50.860;13.664;2022-08-14T07:17:47;96587.13;;;29.28;65.72
25130;BME280;13308;50.860;13.664;2022-08-14T07:20:12;96592.41;;;29.11;67.21
25130;BME280;13308;50.860;13.664;2022-08-14T07:22:38;96589.97;;;29.28;67.37
25130;BME280;13308;50.860;13.664;2022-08-14T07:25:04;96581.63;;;29.56;66.21
25130;BME280;13308;50.860;13.664;2022-08-14T07:27:29;96591.72;;;29.77;63.38
25130;BME280;13308;50.860;13.664;2022-08-14T07:29:55;96581.75;;;30.17;59.17
25130;BME280;13308;50.860;13.664;2022-08-14T07:32:20;96580.03;;;30.63;60.77
25130;BME280;13308;50.860;13.664;2022-08-14T07:34:47;96582.56;;;30.46;59.28
25130;BME280;13308;50.860;13.664;2022-08-14T07:37:12;96571.06;;;30.31;55.42
25130;BME280;13308;50.860;13.664;2022-08-14T07:39:37;96578.47;;;31.31;55.43
25130;BME280;13308;50.860;13.664;2022-08-14T07:42:03;96582.22;;;31.69;53.59
25130;BME280;13308;50.860;13.664;2022-08-14T07:44:28;96573.22;;;32.15;51.17
25130;BME280;13308;50.860;13.664;2022-08-14T07:46:53;96567.50;;;32.08;52.82
25130;BME280;13308;50.860;13.664;2022-08-14T07:49:20;96565.66;;;32.33;51.67
25130;BME280;13308;50.860;13.664;2022-08-14T07:51:45;96575.38;;;32.90;50.25
25130;BME280;13308;50.860;13.664;2022-08-14T07:54:11;96568.66;;;33.10;49.10
25130;BME280;13308;50.860;13.664;2022-08-14T07:56:36;96569.41;;;33.33;48.57
25130;BME280;13308;50.860;13.664;2022-08-14T07:59:02;96574.41;;;34.04;45.76
25130;BME280;13308;50.860;13.664;2022-08-14T08:01:28;96552.97;;;33.26;47.54
25130;BME280;13308;50.860;13.664;2022-08-14T08:03:54;96560.13;;;32.87;48.04
25130;BME280;13308;50.860;13.664;2022-08-14T08:06:23;96556.34;;;33.54;47.80
25130;BME280;13308;50.860;13.664;2022-08-14T08:08:49;96563.19;;;33.59;47.09
25130;BME280;13308;50.860;13.664;2022-08-14T08:11:16;96558.97;;;33.60;47.58
25130;BME280;13308;50.860;13.664;2022-08-14T08:13:43;96561.66;;;33.58;47.13
25130;BME280;13308;50.860;13.664;2022-08-14T08:16:09;96578.28;;;33.99;46.78
25130;BME280;13308;50.860;13.664;2022-08-14T08:18:35;96565.97;;;33.27;46.00
25130;BME280;13308;50.860;13.664;2022-08-14T08:21:00;96562.88;;;33.40;45.72
25130;BME280;13308;50.860;13.664;2022-08-14T08:23:29;96567.84;;;33.32;45.76
25130;BME280;13308;50.860;13.664;2022-08-14T08:25:55;96556.88;;;32.61;46.06
25130;BME280;13308;50.860;13.664;2022-08-14T08:28:24;96561.81;;;32.75;46.54
25130;BME280;13308;50.860;13.664;2022-08-14T08:30:57;96561.84;;;32.38;47.11
25130;BME280;13308;50.860;13.664;2022-08-14T08:33:24;96554.31;;;31.90;48.27
25130;BME280;13308;50.860;13.664;2022-08-14T08:35:52;96565.88;;;31.69;47.02
25130;BME280;13308;50.860;13.664;2022-08-14T08:38:22;96555.72;;;31.18;48.42
25130;BME280;13308;50.860;13.664;2022-08-14T08:40:50;96544.81;;;30.45;49.68
25130;BME280;13308;50.860;13.664;2022-08-14T08:46:00;96551.31;;;29.92;51.73
25130;BME280;13308;50.860;13.664;2022-08-14T08:48:52;96541.84;;;30.10;50.14
25130;BME280;13308;50.860;13.664;2022-08-14T08:51:21;96541.97;;;30.73;48.39
25130;BME280;13308;50.860;13.664;2022-08-14T08:54:00;96538.66;;;30.62;49.31
25130;BME280;13308;50.860;13.664;2022-08-14T08:56:42;96538.31;;;30.65;47.71
25130;BME280;13308;50.860;13.664;2022-08-14T08:59:23;96534.38;;;31.04;47.26
25130;BME280;13308;50.860;13.664;2022-08-14T09:01:54;96528.25;;;30.92;48.05
25130;BME280;13308;50.860;13.664;2022-08-14T09:04:22;96525.81;;;31.04;45.43
25130;BME280;13308;50.860;13.664;2022-08-14T09:06:48;96533.66;;;31.11;45.59
25130;BME280;13308;50.860;13.664;2022-08-14T09:11:46;96530.97;;;31.05;46.45
25130;BME280;13308;50.860;13.664;2022-08-14T09:14:11;96526.03;;;30.50;46.29
25130;BME280;13308;50.860;13.664;2022-08-14T09:16:36;96525.16;;;30.83;46.50
25130;BME280;13308;50.860;13.664;2022-08-14T09:19:02;96523.75;;;30.48;46.87
25130;BME280;13308;50.860;13.664;2022-08-14T09:21:28;96527.97;;;30.55;45.54
25130;BME280;13308;50.860;13.664;2022-08-14T09:23:54;96526.69;;;30.84;45.05
25130;BME280;13308;50.860;13.664;2022-08-14T09:26:19;96521.16;;;30.30;45.93
25130;BME280;13308;50.860;13.664;2022-08-14T09:28:44;96522.34;;;29.60;46.03
25130;BME280;13308;50.860;13.664;2022-08-14T09:31:10;96520.47;;;29.16;47.84
25130;BME280;13308;50.860;13.664;2022-08-14T09:36:54;96503.78;;;28.73;50.66
25130;BME280;13308;50.860;13.664;2022-08-14T09:39:47;96504.44;;;28.79;50.99
25130;BME280;13308;50.860;13.664;2022-08-14T09:42:49;96500.41;;;28.88;50.94
25130;BME280;13308;50.860;13.664;2022-08-14T09:45:33;96508.94;;;28.75;51.05
25130;BME280;13308;50.860;13.664;2022-08-14T09:47:59;96496.38;;;28.83;51.82
25130;BME280;13308;50.860;13.664;2022-08-14T09:50:42;96491.00;;;28.93;53.86
25130;BME280;13308;50.860;13.664;2022-08-14T09:53:09;96491.03;;;28.41;54.78
25130;BME280;13308;50.860;13.664;2022-08-14T09:55:35;96487.84;;;28.44;55.02
25130;BME280;13308;50.860;13.664;2022-08-14T10:00:42;96482.94;;;28.58;55.27
25130;BME280;13308;50.860;13.664;2022-08-14T10:03:08;96473.53;;;28.76;54.65
25130;BME280;13308;50.860;13.664;2022-08-14T10:05:34;96476.16;;;28.61;54.90
25130;BME280;13308;50.860;13.664;2022-08-14T10:08:01;96472.00;;;28.88;54.69
25130;BME280;13308;50.860;13.664;2022-08-14T10:10:36;96468.06;;;28.78;54.05
25130;BME280;13308;50.860;13.664;2022-08-14T10:13:04;96463.25;;;28.86;54.98
25130;BME280;13308;50.860;13.664;2022-08-14T10:15:31;96454.41;;;29.02;54.40
25130;BME280;13308;50.860;13.664;2022-08-14T10:18:11;96445.59;;;29.26;53.34
25130;BME280;13308;50.860;13.664;2022-08-14T10:20:40;96448.78;;;29.10;53.81
25130;BME280;13308;50.860;13.664;2022-08-14T10:23:17;96442.50;;;29.24;54.09
25130;BME280;13308;50.860;13.664;2022-08-14T10:25:47;96442.84;;;29.21;55.88
25130;BME280;13308;50.860;13.664;2022-08-14T10:28:15;96440.44;;;29.25;55.52
25130;BME280;13308;50.860;13.664;2022-08-14T10:30:42;96429.63;;;29.23;54.82
25130;BME280;13308;50.860;13.664;2022-08-14T10:33:31;96435.31;;;29.23;55.25
25130;BME280;13308;50.860;13.664;2022-08-14T10:35:58;96425.31;;;29.09;55.67
25130;BME280;13308;50.860;13.664;2022-08-14T10:38:35;96426.34;;;28.99;56.54
25130;BME280;13308;50.860;13.664;2022-08-14T10:41:15;96436.47;;;29.41;54.33
25130;BME280;13308;50.860;13.664;2022-08-14T10:43:43;96425.19;;;29.15;54.85
25130;BME280;13308;50.860;13.664;2022-08-14T10:46:14;96426.19;;;29.38;55.07
25130;BME280;13308;50.860;13.664;2022-08-14T10:48:40;96420.69;;;29.40;54.42
25130;BME280;13308;50.860;13.664;2022-08-14T10:51:05;96416.41;;;29.46;54.94
25130;BME280;13308;50.860;13.664;2022-08-14T10:53:32;96412.78;;;29.79;53.64
25130;BME280;13308;50.860;13.664;2022-08-14T10:56:00;96407.97;;;30.23;52.40
25130;BME280;13308;50.860;13.664;2022-08-14T10:58:30;96408.69;;;30.44;52.13
25130;BME280;13308;50.860;13.664;2022-08-14T11:00:59;96405.59;;;30.34;51.58
25130;BME280;13308;50.860;13.664;2022-08-14T11:03:36;96400.66;;;30.35;51.15
25130;BME280;13308;50.860;13.664;2022-08-14T11:06:17;96398.25;;;30.82;50.37
25130;BME280;13308;50.860;13.664;2022-08-14T11:08:47;96391.03;;;30.81;50.52
25130;BME280;13308;50.860;13.664;2022-08-14T11:11:12;96398.66;;;30.86;49.18
25130;BME280;13308;50.860;13.664;2022-08-14T11:13:41;96392.81;;;30.56;49.31
25130;BME280;13308;50.860;13.664;2022-08-14T11:16:11;96394.28;;;30.14;50.74
25130;BME280;13308;50.860;13.664;2022-08-14T11:18:38;96388.00;;;29.67;51.21
25130;BME280;13308;50.860;13.664;2022-08-14T11:21:07;96380.69;;;29.38;52.07
25130;BME280;13308;50.860;13.664;2022-08-14T11:23:38;96386.63;;;29.06;52.74
25130;BME280;13308;50.860;13.664;2022-08-14T11:26:04;96394.78;;;28.76;53.89
25130;BME280;13308;50.860;13.664;2022-08-14T11:28:36;96382.53;;;28.22;55.09
25130;BME280;13308;50.860;13.664;2022-08-14T11:31:04;96383.38;;;28.43;55.23
25130;BME280;13308;50.860;13.664;2022-08-14T11:33:30;96375.41;;;28.41;55.33
25130;BME280;13308;50.860;13.664;2022-08-14T11:35:58;96372.34;;;28.26;55.37
25130;BME280;13308;50.860;13.664;2022-08-14T11:38:26;96385.13;;;28.07;55.77
25130;BME280;13308;50.860;13.664;2022-08-14T11:40:55;96374.44;;;28.13;56.30
25130;BME280;13308;50.860;13.664;2022-08-14T11:43:20;96371.06;;;28.14;57.03
25130;BME280;13308;50.860;13.664;2022-08-14T11:45:46;96370.50;;;28.03;56.76
25130;BME280;13308;50.860;13.664;2022-08-14T11:48:21;96371.38;;;27.85;57.46
25130;BME280;13308;50.860;13.664;2022-08-14T11:50:49;96371.16;;;27.96;57.76
25130;BME280;13308;50.860;13.664;2022-08-14T11:53:33;96362.00;;;27.90;58.30
25130;BME280;13308;50.860;13.664;2022-08-14T11:56:04;96358.19;;;28.13;57.09
25130;BME280;13308;50.860;13.664;2022-08-14T11:58:33;96356.75;;;28.46;56.81
25130;BME280;13308;50.860;13.664;2022-08-14T12:01:00;96357.56;;;29.13;53.56
25130;BME280;13308;50.860;13.664;2022-08-14T12:03:40;96349.06;;;29.82;51.55
25130;BME280;13308;50.860;13.664;2022-08-14T12:06:09;96363.97;;;29.96;50.71
25130;BME280;13308;50.860;13.664;2022-08-14T12:08:36;96364.06;;;30.11;50.86
25130;BME280;13308;50.860;13.664;2022-08-14T12:11:04;96365.84;;;29.93;50.70
25130;BME280;13308;50.860;13.664;2022-08-14T12:13:30;96354.81;;;29.90;51.18
25130;BME280;13308;50.860;13.664;2022-08-14T12:16:04;96354.63;;;29.88;51.17
25130;BME280;13308;50.860;13.664;2022-08-14T12:18:49;96357.91;;;29.99;51.00
25130;BME280;13308;50.860;13.664;2022-08-14T12:21:24;96355.50;;;29.55;50.89
25130;BME280;13308;50.860;13.664;2022-08-14T12:24:02;96352.00;;;29.49;51.33
25130;BME280;13308;50.860;13.664;2022-08-14T12:26:28;96355.88;;;29.79;48.78
25130;BME280;13308;50.860;13.664;2022-08-14T12:29:11;96356.91;;;29.48;50.15
25130;BME280;13308;50.860;13.664;2022-08-14T12:31:37;96350.56;;;29.35;48.90
25130;BME280;13308;50.860;13.664;2022-08-14T12:34:05;96361.03;;;28.73;51.38
25130;BME280;13308;50.860;13.664;2022-08-14T12:36:32;96347.47;;;28.79;51.72
25130;BME280;13308;50.860;13.664;2022-08-14T12:38:59;96347.22;;;28.90;51.26
25130;BME280;13308;50.860;13.664;2022-08-14T12:41:27;96343.22;;;28.85;51.43
25130;BME280;13308;50.860;13.664;2022-08-14T12:43:57;96346.25;;;28.87;51.73
25130;BME280;13308;50.860;13.664;2022-08-14T12:46:35;96341.13;;;28.99;50.65
25130;BME280;13308;50.860;13.664;2022-08-14T12:49:15;96342.72;;;29.07;50.29
25130;BME280;13308;50.860;13.664;2022-08-14T12:51:54;96334.16;;;28.87;50.62
25130;BME280;13308;50.860;13.664;2022-08-14T12:54:19;96337.38;;;29.04;50.16
25130;BME280;13308;50.860;13.664;2022-08-14T12:56:46;96327.34;;;28.90;50.14
25130;BME280;13308;50.860;13.664;2022-08-14T12:59:12;96327.34;;;28.90;50.96
25130;BME280;13308;50.860;13.664;2022-08-14T13:01:38;96329.09;;;28.93;51.77
25130;BME280;13308;50.860;13.664;2022-08-14T13:04:13;96319.63;;;28.77;52.96
25130;BME280;13308;50.860;13.664;2022-08-14T13:06:40;96317.63;;;28.65;53.15
25130;BME280;13308;50.860;13.664;2022-08-14T13:09:09;96319.88;;;28.46;54.65
25130;BME280;13308;50.860;13.664;2022-08-14T13:11:42;96309.22;;;28.59;54.22
25130;BME280;13308;50.860;13.664;2022-08-14T13:14:10;96308.47;;;28.59;53.28
25130;BME280;13308;50.860;13.664;2022-08-14T13:16:39;96303.00;;;28.61;53.87
25130;BME280;13308;50.860;13.664;2022-08-14T13:19:10;96294.31;;;28.46;54.39
25130;BME280;13308;50.860;13.664;2022-08-14T13:21:38;96291.97;;;27.98;54.68
25130;BME280;13308;50.860;13.664;2022-08-14T13:24:04;96295.22;;;28.02;55.15
25130;BME280;13308;50.860;13.664;2022-08-14T13:26:30;96292.06;;;28.05;55.67
25130;BME280;13308;50.860;13.664;2022-08-14T13:28:57;96296.44;;;28.19;55.00
25130;BME280;13308;50.860;13.664;2022-08-14T13:31:26;96286.78;;;28.48;55.34
25130;BME280;13308;50.860;13.664;2022-08-14T13:33:53;96280.91;;;28.67;54.21
25130;BME280;13308;50.860;13.664;2022-08-14T13:36:18;96277.69;;;28.50;53.22
25130;BME280;13308;50.860;13.664;2022-08-14T13:38:43;96266.63;;;28.93;52.17
25130;BME280;13308;50.860;13.664;2022-08-14T13:41:10;96262.84;;;29.39;52.50
25130;BME280;13308;50.860;13.664;2022-08-14T13:43:36;96263.56;;;30.16;50.80
25130;BME280;13308;50.860;13.664;2022-08-14T13:46:04;96262.34;;;31.35;47.35
25130;BME280;13308;50.860;13.664;2022-08-14T13:48:29;96257.41;;;31.73;46.75
25130;BME280;13308;50.860;13.664;2022-08-14T13:50:56;96256.28;;;32.38;46.16
25130;BME280;13308;50.860;13.664;2022-08-14T13:53:22;96265.84;;;32.57;44.41
25130;BME280;13308;50.860;13.664;2022-08-14T13:55:50;96263.59;;;32.56;44.27
25130;BME280;13308;50.860;13.664;2022-08-14T13:58:18;96256.78;;;31.97;45.14
25130;BME280;13308;50.860;13.664;2022-08-14T14:00:45;96248.22;;;31.82;46.57
25130;BME280;13308;50.860;13.664;2022-08-14T14:03:10;96239.88;;;31.69;46.44
25130;BME280;13308;50.860;13.664;2022-08-14T14:05:37;96243.72;;;31.34;47.32
25130;BME280;13308;50.860;13.664;2022-08-14T14:08:05;96245.19;;;31.05;47.34
25130;BME280;13308;50.860;13.664;2022-08-14T14:10:35;96239.16;;;31.38;46.91
25130;BME280;13308;50.860;13.664;2022-08-14T14:13:01;96242.59;;;32.61;45.22
25130;BME280;13308;50.860;13.664;2022-08-14T14:15:28;96235.03;;;34.63;41.44
25130;BME280;13308;50.860;13.664;2022-08-14T14:17:54;96231.38;;;35.51;40.09
25130;BME280;13308;50.860;13.664;2022-08-14T14:20:20;96236.41;;;35.60;38.92
25130;BME280;13308;50.860;13.664;2022-08-14T14:22:49;96233.59;;;35.25;39.04
25130;BME280;13308;50.860;13.664;2022-08-14T14:25:17;96223.97;;;36.22;38.77
25130;BME280;13308;50.860;13.664;2022-08-14T14:27:44;96222.44;;;36.12;38.07
25130;BME280;13308;50.860;13.664;2022-08-14T14:30:12;96218.44;;;36.83;37.75
25130;BME280;13308;50.860;13.664;2022-08-14T14:32:39;96212.75;;;37.14;37.32
25130;BME280;13308;50.860;13.664;2022-08-14T14:35:08;96218.28;;;37.31;36.42
25130;BME280;13308;50.860;13.664;2022-08-14T14:37:38;96211.03;;;37.60;36.74
25130;BME280;13308;50.860;13.664;2022-08-14T14:40:04;96208.53;;;36.08;38.27
25130;BME280;13308;50.860;13.664;2022-08-14T14:42:31;96190.84;;;34.23;40.20
25130;BME280;13308;50.860;13.664;2022-08-14T14:45:10;96184.03;;;33.67;41.64
25130;BME280;13308;50.860;13.664;2022-08-14T14:47:39;96180.28;;;32.99;42.24
25130;BME280;13308;50.860;13.664;2022-08-14T14:50:06;96181.31;;;32.86;42.70
25130;BME280;13308;50.860;13.664;2022-08-14T14:52:35;96167.72;;;32.38;43.68
25130;BME280;13308;50.860;13.664;2022-08-14T14:55:01;96174.28;;;32.16;44.30
25130;BME280;13308;50.860;13.664;2022-08-14T14:57:28;96172.16;;;32.88;43.09
25130;BME280;13308;50.860;13.664;2022-08-14T14:59:53;96168.13;;;32.91;42.84
25130;BME280;13308;50.860;13.664;2022-08-14T15:02:40;96162.03;;;32.38;43.80
25130;BME280;13308;50.860;13.664;2022-08-14T15:05:07;96152.41;;;31.56;44.38
25130;BME280;13308;50.860;13.664;2022-08-14T15:07:34;96163.50;;;31.00;44.42
25130;BME280;13308;50.860;13.664;2022-08-14T15:09:59;96161.97;;;30.54;44.62
25130;BME280;13308;50.860;13.664;2022-08-14T15:12:25;96155.72;;;30.05;45.39
25130;BME280;13308;50.860;13.664;2022-08-14T15:14:50;96152.41;;;29.71;46.35
25130;BME280;13308;50.860;13.664;2022-08-14T15:17:16;96149.56;;;29.43;47.27
25130;BME280;13308;50.860;13.664;2022-08-14T15:19:42;96144.41;;;29.06;47.80
25130;BME280;13308;50.860;13.664;2022-08-14T15:22:08;96153.13;;;28.87;47.90
25130;BME280;13308;50.860;13.664;2022-08-14T15:24:33;96152.59;;;28.68;49.23
25130;BME280;13308;50.860;13.664;2022-08-14T15:26:59;96144.56;;;28.80;48.58
25130;BME280;13308;50.860;13.664;2022-08-14T15:29:25;96146.78;;;28.74;48.88
25130;BME280;13308;50.860;13.664;2022-08-14T15:31:51;96150.59;;;28.56;49.54
25130;BME280;13308;50.860;13.664;2022-08-14T15:34:18;96142.69;;;28.62;50.49
25130;BME280;13308;50.860;13.664;2022-08-14T15:36:44;96132.22;;;28.16;52.15
25130;BME280;13308;50.860;13.664;2022-08-14T15:39:11;96131.84;;;27.99;53.42
25130;BME280;13308;50.860;13.664;2022-08-14T15:41:37;96139.31;;;27.89;55.60
25130;BME280;13308;50.860;13.664;2022-08-14T15:44:03;96126.84;;;26.93;60.00
25130;BME280;13308;50.860;13.664;2022-08-14T15:46:28;96120.81;;;26.84;61.73
25130;BME280;13308;50.860;13.664;2022-08-14T15:48:54;96119.50;;;26.72;63.06
25130;BME280;13308;50.860;13.664;2022-08-14T15:51:19;96119.91;;;26.50;63.01
25130;BME280;13308;50.860;13.664;2022-08-14T15:53:45;96123.22;;;26.67;62.47
25130;BME280;13308;50.860;13.664;2022-08-14T15:56:10;96126.25;;;26.56;62.46
25130;BME280;13308;50.860;13.664;2022-08-14T15:58:36;96133.28;;;26.49;63.35
25130;BME280;13308;50.860;13.664;2022-08-14T16:01:01;96128.97;;;26.30;63.59
25130;BME280;13308;50.860;13.664;2022-08-14T16:03:46;96129.97;;;26.01;65.76
25130;BME280;13308;50.860;13.664;2022-08-14T16:06:15;96114.16;;;25.92;66.78
25130;BME280;13308;50.860;13.664;2022-08-14T16:08:42;96110.13;;;25.69;67.65
25130;BME280;13308;50.860;13.664;2022-08-14T16:11:09;96116.91;;;25.61;68.69
25130;BME280;13308;50.860;13.664;2022-08-14T16:13:36;96124.63;;;25.79;68.07
25130;BME280;13308;50.860;13.664;2022-08-14T16:16:23;96116.38;;;25.99;66.64
25130;BME280;13308;50.860;13.664;2022-08-14T16:18:49;96120.19;;;26.02;67.16
25130;BME280;13308;50.860;13.664;2022-08-14T16:21:19;96106.56;;;25.82;68.58
25130;BME280;13308;50.860;13.664;2022-08-14T16:23:45;96113.94;;;25.72;69.41
25130;BME280;13308;50.860;13.664;2022-08-14T16:26:18;96110.66;;;25.68;69.58
25130;BME280;13308;50.860;13.664;2022-08-14T16:28:54;96100.94;;;25.45;70.79
25130;BME280;13308;50.860;13.664;2022-08-14T16:31:40;96109.44;;;25.26;71.21
25130;BME280;13308;50.860;13.664;2022-08-14T16:34:06;96101.06;;;25.15;72.56
25130;BME280;13308;50.860;13.664;2022-08-14T16:36:33;96100.00;;;25.18;72.98
25130;BME280;13308;50.860;13.664;2022-08-14T16:39:01;96098.34;;;25.28;73.04
25130;BME280;13308;50.860;13.664;2022-08-14T16:41:27;96099.69;;;25.22;73.34
25130;BME280;13308;50.860;13.664;2022-08-14T16:43:54;96098.88;;;25.27;74.06
25130;BME280;13308;50.860;13.664;2022-08-14T16:46:20;96094.66;;;25.15;74.27
25130;BME280;13308;50.860;13.664;2022-08-14T16:48:46;96096.03;;;25.08;74.48
25130;BME280;13308;50.860;13.664;2022-08-14T16:51:13;96085.16;;;24.94;75.82
25130;BME280;13308;50.860;13.664;2022-08-14T16:53:41;96085.59;;;24.79;77.08
25130;BME280;13308;50.860;13.664;2022-08-14T16:56:16;96074.00;;;24.83;76.03
25130;BME280;13308;50.860;13.664;2022-08-14T16:58:42;96082.69;;;24.85;76.49
25130;BME280;13308;50.860;13.664;2022-08-14T17:01:16;96082.81;;;24.74;76.74
25130;BME280;13308;50.860;13.664;2022-08-14T17:03:58;96086.16;;;24.72;77.12
25130;BME280;13308;50.860;13.664;2022-08-14T17:06:47;96086.84;;;24.54;77.73
25130;BME280;13308;50.860;13.664;2022-08-14T17:09:32;96081.34;;;24.43;78.73
25130;BME280;13308;50.860;13.664;2022-08-14T17:12:25;96075.56;;;24.30;79.73
25130;BME280;13308;50.860;13.664;2022-08-14T17:14:53;96070.75;;;24.25;80.51
25130;BME280;13308;50.860;13.664;2022-08-14T17:17:43;96082.66;;;24.37;80.54
25130;BME280;13308;50.860;13.664;2022-08-14T17:22:48;96077.31;;;24.04;82.87
25130;BME280;13308;50.860;13.664;2022-08-14T17:25:15;96074.38;;;24.20;82.39
25130;BME280;13308;50.860;13.664;2022-08-14T17:27:41;96069.59;;;24.10;83.74
25130;BME280;13308;50.860;13.664;2022-08-14T17:30:09;96076.38;;;24.25;83.62
